createdAt,value
2023-04-30T00:04:13.214Z,1013.73
2023-04-30T00:09:12.355Z,1013.69
2023-04-30T00:14:10.470Z,1013.67
2023-04-30T00:19:10.616Z,1013.74
2023-04-30T00:24:09.745Z,1013.74
2023-04-30T00:29:08.884Z,1013.75
2023-04-30T00:34:08.208Z,1013.71
2023-04-30T00:39:08.570Z,1013.66
2023-04-30T00:44:06.789Z,1013.69
2023-04-30T00:49:06.003Z,1013.67
2023-04-30T00:54:05.284Z,1013.64
2023-04-30T00:59:04.576Z,1013.63
2023-04-30T01:04:03.888Z,1013.64
2023-04-30T01:09:03.164Z,1013.57
2023-04-30T01:14:04.486Z,1013.63
2023-04-30T01:19:01.822Z,1013.56
2023-04-30T01:24:01.067Z,1013.61
2023-04-30T01:29:00.306Z,1013.65
2023-04-30T01:34:00.569Z,1013.69
2023-04-30T01:38:58.857Z,1013.75
2023-04-30T01:43:59.132Z,1013.72
2023-04-30T01:48:58.377Z,1013.76
2023-04-30T01:53:58.638Z,1013.71
2023-04-30T01:58:56.907Z,1013.65
2023-04-30T02:03:55.250Z,1013.71
2023-04-30T02:08:54.371Z,1013.80
2023-04-30T02:13:54.651Z,1013.71
2023-04-30T02:18:53.931Z,1013.67
2023-04-30T02:23:52.224Z,1013.67
2023-04-30T02:28:51.518Z,1013.71
2023-04-30T02:33:51.842Z,1013.73
2023-04-30T02:38:51.147Z,1013.72
2023-04-30T02:43:50.438Z,1013.70
2023-04-30T02:48:49.696Z,1013.64
2023-04-30T02:53:49.993Z,1013.60
2023-04-30T02:58:48.286Z,1013.55
2023-04-30T03:03:46.628Z,1013.54
2023-04-30T03:08:45.873Z,1013.52
2023-04-30T03:13:46.145Z,1013.44
2023-04-30T03:18:44.418Z,1013.49
2023-04-30T03:23:43.693Z,1013.48
2023-04-30T03:28:42.951Z,1013.54
2023-04-30T03:33:43.364Z,1013.48
2023-04-30T03:38:41.438Z,1013.45
2023-04-30T03:43:41.687Z,1013.42
2023-04-30T03:48:41.967Z,1013.35
2023-04-30T03:53:39.216Z,1013.34
2023-04-30T03:58:39.463Z,1013.34
2023-04-30T04:03:37.788Z,1013.37
2023-04-30T04:08:36.951Z,1013.32
2023-04-30T04:13:36.206Z,1013.38
2023-04-30T04:18:35.453Z,1013.41
2023-04-30T04:23:36.700Z,1013.49
2023-04-30T04:28:34.944Z,1013.54
2023-04-30T04:33:33.200Z,1013.51
2023-04-30T04:38:32.471Z,1013.53
2023-04-30T04:43:32.722Z,1013.57
2023-04-30T04:48:30.986Z,1013.61
2023-04-30T04:53:34.266Z,1013.61
2023-04-30T04:58:29.468Z,1013.56
2023-04-30T05:03:28.779Z,1013.60
2023-04-30T05:08:30.070Z,1013.62
2023-04-30T05:13:28.313Z,1013.64
2023-04-30T05:18:26.582Z,1013.67
2023-04-30T05:23:25.828Z,1013.67
2023-04-30T05:28:26.088Z,1013.64
2023-04-30T05:33:25.361Z,1013.67
2023-04-30T05:38:23.613Z,1013.67
2023-04-30T05:43:23.915Z,1013.61
2023-04-30T05:48:22.176Z,1013.69
2023-04-30T05:53:22.442Z,1013.67
2023-04-30T05:58:20.702Z,1013.71
2023-04-30T06:03:21.036Z,1013.66
2023-04-30T06:08:19.294Z,1013.71
2023-04-30T06:13:18.566Z,1013.65
2023-04-30T06:18:17.835Z,1013.65
2023-04-30T06:23:17.099Z,1013.69
2023-04-30T06:28:17.359Z,1013.77
2023-04-30T06:33:16.629Z,1013.79
2023-04-30T06:38:15.875Z,1013.77
2023-04-30T06:43:15.140Z,1013.80
2023-04-30T06:48:14.397Z,1013.73
2023-04-30T06:53:13.689Z,1013.72
2023-04-30T06:58:11.935Z,1013.71
2023-04-30T07:03:11.284Z,1013.63
2023-04-30T07:08:10.415Z,1013.58
2023-04-30T07:13:11.773Z,1013.63
2023-04-30T07:18:08.887Z,1013.54
2023-04-30T07:23:08.176Z,1013.50
2023-04-30T07:28:08.471Z,1013.49
2023-04-30T07:33:08.845Z,1013.48
2023-04-30T07:38:06.929Z,1013.48
2023-04-30T07:43:05.276Z,1013.43
2023-04-30T07:48:05.418Z,1013.42
2023-04-30T07:53:03.683Z,1013.42
2023-04-30T07:58:04.009Z,1013.41
2023-04-30T08:03:02.372Z,1013.35
2023-04-30T08:08:02.477Z,1013.32
2023-04-30T08:13:01.740Z,1013.33
2023-04-30T08:18:00.044Z,1013.28
2023-04-30T08:23:00.327Z,1013.30
2023-04-30T08:27:58.579Z,1013.25
2023-04-30T08:32:58.001Z,1013.22
2023-04-30T08:37:57.067Z,1013.24
2023-04-30T08:42:56.325Z,1013.21
2023-04-30T08:47:56.642Z,1013.22
2023-04-30T08:52:56.920Z,1013.24
2023-04-30T08:57:56.177Z,1013.10
2023-04-30T09:02:54.643Z,1013.13
2023-04-30T09:08:03.084Z,1013.02
2023-04-30T09:12:52.279Z,1013.11
2023-04-30T09:17:51.351Z,1013.10
2023-04-30T09:22:50.621Z,1013.07
2023-04-30T09:27:51.038Z,1013.06
2023-04-30T09:32:48.148Z,1013.08
2023-04-30T09:37:48.438Z,1013.03
2023-04-30T09:42:47.743Z,1012.96
2023-04-30T09:47:47.022Z,1013.08
2023-04-30T09:52:47.333Z,1012.99
2023-04-30T09:57:45.660Z,1013.09
2023-04-30T10:02:46.754Z,1012.97
2023-04-30T10:07:46.022Z,1012.94
2023-04-30T10:12:44.302Z,1012.80
2023-04-30T10:17:43.645Z,1012.74
2023-04-30T10:22:42.897Z,1012.75
2023-04-30T10:27:42.175Z,1012.67
2023-04-30T10:32:40.457Z,1012.65
2023-04-30T10:37:40.737Z,1012.60
2023-04-30T10:42:40.101Z,1012.48
2023-04-30T10:47:38.209Z,1012.42
2023-04-30T10:52:37.462Z,1012.41
2023-04-30T10:57:37.734Z,1012.38
2023-04-30T11:02:36.044Z,1012.33
2023-04-30T11:07:35.312Z,1012.25
2023-04-30T11:12:34.571Z,1012.20
2023-04-30T11:17:33.909Z,1012.10
2023-04-30T11:22:33.985Z,1012.08
2023-04-30T11:27:32.270Z,1012.09
2023-04-30T11:32:32.579Z,1012.07
2023-04-30T11:37:32.815Z,1012.09
2023-04-30T11:42:31.061Z,1011.98
2023-04-30T11:47:29.394Z,1011.90
2023-04-30T11:52:28.628Z,1011.82
2023-04-30T11:57:27.922Z,1011.80
2023-04-30T12:02:27.235Z,1011.74
2023-04-30T12:07:27.322Z,1011.71
2023-04-30T12:12:26.585Z,1011.68
2023-04-30T12:17:25.901Z,1011.73
2023-04-30T12:22:24.186Z,1011.68
2023-04-30T12:27:23.490Z,1011.68
2023-04-30T12:32:22.913Z,1011.52
2023-04-30T12:37:35.036Z,1011.51
2023-04-30T12:42:21.238Z,1011.47
2023-04-30T12:47:22.523Z,1011.40
2023-04-30T12:52:20.817Z,1011.44
2023-04-30T12:57:19.088Z,1011.35
2023-04-30T13:02:19.449Z,1011.29
2023-04-30T13:07:17.533Z,1011.22
2023-04-30T13:12:16.802Z,1011.27
2023-04-30T13:17:16.071Z,1011.19
2023-04-30T13:22:16.376Z,1011.13
2023-04-30T13:27:15.670Z,1011.17
2023-04-30T13:32:13.944Z,1011.21
2023-04-30T13:37:13.217Z,1011.13
2023-04-30T13:42:13.474Z,1011.00
2023-04-30T13:47:12.016Z,1010.95
2023-04-30T13:52:10.980Z,1010.95
2023-04-30T13:57:10.269Z,1010.98
2023-04-30T14:02:10.570Z,1010.89
2023-04-30T14:07:08.844Z,1010.94
2023-04-30T14:12:09.219Z,1010.93
2023-04-30T14:17:08.270Z,1010.90
2023-04-30T14:22:07.572Z,1010.95
2023-04-30T14:27:05.854Z,1011.00
2023-04-30T14:32:05.237Z,1011.02
2023-04-30T14:37:04.384Z,1010.96
2023-04-30T14:42:03.494Z,1010.98
2023-04-30T14:47:03.776Z,1010.86
2023-04-30T14:52:02.071Z,1010.87
2023-04-30T14:57:03.370Z,1010.83
2023-04-30T15:02:01.642Z,1010.80
2023-04-30T15:07:00.918Z,1010.80
2023-04-30T15:11:59.170Z,1010.79
2023-04-30T15:16:58.416Z,1010.65
2023-04-30T15:21:58.691Z,1010.58
2023-04-30T15:26:56.929Z,1010.64
2023-04-30T15:31:56.387Z,1010.66
2023-04-30T15:36:56.426Z,1010.65
2023-04-30T15:41:55.728Z,1010.64
2023-04-30T15:46:53.021Z,1010.49
2023-04-30T15:51:53.350Z,1010.54
2023-04-30T15:56:53.642Z,1010.55
2023-04-30T16:01:51.039Z,1010.58
2023-04-30T16:06:51.744Z,1010.61
2023-04-30T16:11:51.373Z,1010.55
2023-04-30T16:16:50.715Z,1010.55
2023-04-30T16:21:50.793Z,1010.63
2023-04-30T16:26:48.232Z,1010.62
2023-04-30T16:31:47.382Z,1010.57
2023-04-30T16:36:46.497Z,1010.64
2023-04-30T16:41:46.779Z,1010.62
2023-04-30T16:46:46.026Z,1010.58
2023-04-30T16:51:44.632Z,1010.69
2023-04-30T16:56:43.536Z,1010.65
2023-04-30T17:01:45.973Z,1010.64
2023-04-30T17:06:42.039Z,1010.64
2023-04-30T17:11:41.275Z,1010.70
2023-04-30T17:16:38.977Z,1010.81
2023-04-30T17:21:41.745Z,1010.77
2023-04-30T17:26:38.029Z,1010.80
2023-04-30T17:31:38.383Z,1010.85
2023-04-30T17:36:41.952Z,1010.88
2023-04-30T17:41:37.205Z,1010.88
2023-04-30T17:46:36.576Z,1010.85
2023-04-30T17:51:36.697Z,1010.86
2023-04-30T17:56:39.022Z,1010.93
2023-04-30T18:01:34.113Z,1011.05
2023-04-30T18:06:35.302Z,1011.03
2023-04-30T18:11:32.382Z,1011.01
2023-04-30T18:16:31.731Z,1011.04
2023-04-30T18:21:30.830Z,1011.09
2023-04-30T18:26:30.085Z,1011.06
2023-04-30T18:31:30.772Z,1011.10
2023-04-30T18:36:28.561Z,1011.14
2023-04-30T18:41:27.877Z,1011.16
2023-04-30T18:46:28.232Z,1011.23
2023-04-30T18:51:27.501Z,1011.25
2023-04-30T18:56:25.797Z,1011.34
2023-04-30T19:01:26.156Z,1011.44
2023-04-30T19:06:26.422Z,1011.46
2023-04-30T19:11:24.615Z,1011.47
2023-04-30T19:16:22.895Z,1011.50
2023-04-30T19:21:22.042Z,1011.56
2023-04-30T19:26:22.493Z,1011.60
2023-04-30T19:31:21.055Z,1011.59
2023-04-30T19:36:19.873Z,1011.63
2023-04-30T19:41:20.490Z,1011.67
2023-04-30T19:46:22.785Z,1011.69
2023-04-30T19:51:17.937Z,1011.68
2023-04-30T19:56:16.998Z,1011.69
2023-04-30T20:01:16.692Z,1011.67
2023-04-30T20:06:16.649Z,1011.68
2023-04-30T20:11:15.087Z,1011.71
2023-04-30T20:16:14.407Z,1011.66
2023-04-30T20:21:13.368Z,1011.66
2023-04-30T20:26:12.759Z,1011.72
2023-04-30T20:31:11.874Z,1011.69
2023-04-30T20:36:12.023Z,1011.70
2023-04-30T20:41:10.330Z,1011.71
2023-04-30T20:46:10.690Z,1011.74
2023-04-30T20:51:09.770Z,1011.75
2023-04-30T20:56:08.043Z,1011.74
2023-04-30T21:01:07.397Z,1011.74
2023-04-30T21:06:09.695Z,1011.74
2023-04-30T21:11:06.736Z,1011.74
2023-04-30T21:16:06.097Z,1011.73
2023-04-30T21:21:05.441Z,1011.68
2023-04-30T21:26:04.474Z,1011.70
2023-04-30T21:31:03.770Z,1011.73
2023-04-30T21:36:02.075Z,1011.75
2023-04-30T21:41:01.376Z,1011.72
2023-04-30T21:46:00.684Z,1011.67
2023-04-30T21:51:00.935Z,1011.74
2023-04-30T21:55:59.148Z,1011.66
2023-04-30T22:00:58.407Z,1011.67
2023-04-30T22:05:58.674Z,1011.69
2023-04-30T22:10:56.861Z,1011.64
2023-04-30T22:15:55.191Z,1011.63
2023-04-30T22:20:55.456Z,1011.60
2023-04-30T22:25:55.771Z,1011.59
2023-04-30T22:30:55.053Z,1011.63
2023-04-30T22:35:54.350Z,1011.66
2023-04-30T22:40:52.736Z,1011.65
2023-04-30T22:45:52.813Z,1011.59
2023-04-30T22:50:51.054Z,1011.64
2023-04-30T22:55:51.332Z,1011.67
2023-04-30T23:00:50.611Z,1011.69
2023-04-30T23:05:48.828Z,1011.64
2023-04-30T23:10:48.115Z,1011.54
2023-04-30T23:15:48.366Z,1011.59
2023-04-30T23:20:47.637Z,1011.59
2023-04-30T23:25:46.909Z,1011.62
2023-04-30T23:30:45.165Z,1011.53
2023-04-30T23:35:46.512Z,1011.51
2023-04-30T23:40:44.722Z,1011.50
2023-04-30T23:45:44.000Z,1011.48
2023-04-30T23:50:41.273Z,1011.45
2023-04-30T23:55:41.572Z,1011.40
